createdAt,value
2023-05-02T00:01:53.957Z,10.68
2023-05-02T00:03:57.551Z,11.73
2023-05-02T00:06:01.699Z,10.02
2023-05-02T00:08:04.991Z,9.10
2023-05-02T00:10:10.230Z,8.38
2023-05-02T00:12:12.951Z,9.73
2023-05-02T00:14:15.660Z,9.95
2023-05-02T00:16:18.958Z,9.60
2023-05-02T00:18:21.761Z,13.38
2023-05-02T00:20:24.688Z,8.27
2023-05-02T00:22:28.300Z,12.02
2023-05-02T00:24:30.979Z,8.98
2023-05-02T00:26:35.084Z,9.02
2023-05-02T00:28:37.800Z,9.27
2023-05-02T00:30:44.052Z,9.23
2023-05-02T00:32:46.901Z,9.85
2023-05-02T00:34:49.572Z,8.52
2023-05-02T00:36:52.202Z,9.35
2023-05-02T00:38:54.918Z,9.77
2023-05-02T00:40:57.784Z,9.18
2023-05-02T00:43:01.780Z,9.50
2023-05-02T00:45:06.800Z,9.05
2023-05-02T00:47:09.798Z,10.32
2023-05-02T00:49:12.569Z,8.45
2023-05-02T00:51:15.307Z,8.32
2023-05-02T00:53:18.349Z,9.85
2023-05-02T00:55:21.378Z,8.93
2023-05-02T00:57:25.450Z,10.40
2023-05-02T00:59:29.555Z,8.93
2023-05-02T01:01:41.250Z,9.20
2023-05-02T01:03:55.727Z,8.75
2023-05-02T01:06:06.997Z,11.63
2023-05-02T01:08:19.320Z,8.93
2023-05-02T01:10:29.289Z,9.15
2023-05-02T01:12:38.822Z,9.07
2023-05-02T01:14:46.619Z,9.05
2023-05-02T01:16:50.817Z,9.32
2023-05-02T01:18:53.919Z,11.45
2023-05-02T01:21:00.342Z,10.30
2023-05-02T01:23:10.271Z,9.77
2023-05-02T01:25:22.356Z,9.57
2023-05-02T01:27:34.686Z,10.75
2023-05-02T01:29:41.137Z,10.68
2023-05-02T01:31:46.609Z,9.82
2023-05-02T01:33:50.028Z,10.52
2023-05-02T01:35:54.543Z,10.80
2023-05-02T01:37:59.077Z,10.85
2023-05-02T01:40:04.408Z,10.45
2023-05-02T01:42:07.122Z,10.45
2023-05-02T01:44:11.028Z,11.15
2023-05-02T01:46:16.047Z,11.60
2023-05-02T01:48:20.379Z,11.55
2023-05-02T01:50:27.064Z,10.23
2023-05-02T01:54:36.202Z,12.20
2023-05-02T01:56:40.379Z,11.30
2023-05-02T01:58:44.294Z,11.07
2023-05-02T02:00:47.982Z,11.88
2023-05-02T02:02:54.721Z,11.52
2023-05-02T02:07:04.873Z,10.50
2023-05-02T02:09:08.809Z,10.70
2023-05-02T02:11:18.099Z,10.32
2023-05-02T02:13:28.685Z,12.48
2023-05-02T02:15:35.529Z,11.35
2023-05-02T02:17:41.599Z,12.32
2023-05-02T02:19:47.037Z,10.88
2023-05-02T02:21:51.960Z,14.10
2023-05-02T02:23:58.397Z,10.13
2023-05-02T02:26:03.487Z,11.43
2023-05-02T02:28:06.895Z,14.07
2023-05-02T02:30:10.461Z,12.55
2023-05-02T02:32:13.269Z,11.07
2023-05-02T02:34:16.273Z,11.15
2023-05-02T02:36:25.757Z,12.63
2023-05-02T02:38:38.245Z,12.88
2023-05-02T02:40:46.628Z,11.93
2023-05-02T02:42:54.249Z,12.35
2023-05-02T02:45:07.053Z,10.52
2023-05-02T02:47:13.150Z,11.05
2023-05-02T02:49:28.205Z,11.75
2023-05-02T02:51:39.765Z,12.77
2023-05-02T02:53:52.059Z,10.68
2023-05-02T02:55:58.823Z,13.13
2023-05-02T02:58:08.485Z,13.00
2023-05-02T03:00:17.062Z,11.77
2023-05-02T03:02:23.873Z,12.18
2023-05-02T03:04:28.744Z,11.70
2023-05-02T03:06:32.909Z,10.48
2023-05-02T03:08:41.062Z,12.27
2023-05-02T03:10:43.828Z,10.93
2023-05-02T03:12:46.616Z,12.80
2023-05-02T03:14:49.478Z,12.07
2023-05-02T03:16:52.488Z,11.85
2023-05-02T03:18:55.199Z,11.93
2023-05-02T03:20:57.937Z,10.98
2023-05-02T03:23:02.069Z,12.00
2023-05-02T03:25:05.277Z,10.32
2023-05-02T03:27:08.021Z,11.13
2023-05-02T03:29:10.816Z,11.13
2023-05-02T03:31:13.813Z,10.70
2023-05-02T03:33:16.648Z,11.57
2023-05-02T03:35:19.350Z,12.90
2023-05-02T03:37:22.109Z,9.88
2023-05-02T03:39:26.295Z,10.57
2023-05-02T03:41:29.048Z,15.30
2023-05-02T03:43:31.927Z,10.00
2023-05-02T03:45:35.851Z,10.25
2023-05-02T03:47:38.625Z,9.85
2023-05-02T03:49:41.650Z,10.25
2023-05-02T03:51:44.432Z,10.35
2023-05-02T03:53:47.672Z,10.13
2023-05-02T03:55:51.736Z,9.68
2023-05-02T03:57:54.440Z,11.95
2023-05-02T03:59:57.702Z,11.55
2023-05-02T04:02:00.624Z,12.10
2023-05-02T04:04:03.425Z,11.13
2023-05-02T04:06:06.898Z,11.60
2023-05-02T04:08:09.732Z,10.98
2023-05-02T04:10:16.527Z,9.30
2023-05-02T04:12:21.540Z,11.80
2023-05-02T04:14:24.367Z,9.63
2023-05-02T04:16:27.197Z,10.02
2023-05-02T04:18:29.917Z,11.80
2023-05-02T04:20:32.664Z,11.07
2023-05-02T04:22:35.948Z,9.52
2023-05-02T04:24:38.654Z,10.32
2023-05-02T04:26:41.656Z,11.43
2023-05-02T04:28:45.816Z,10.93
2023-05-02T04:30:49.083Z,10.85
2023-05-02T04:32:51.960Z,12.80
2023-05-02T04:34:54.687Z,12.27
2023-05-02T04:36:57.517Z,10.35
2023-05-02T04:39:00.317Z,12.02
2023-05-02T04:41:08.839Z,10.90
2023-05-02T04:43:12.142Z,10.98
2023-05-02T04:45:16.164Z,12.38
2023-05-02T04:47:25.559Z,9.95
2023-05-02T04:49:32.200Z,9.77
2023-05-02T04:51:35.098Z,9.63
2023-05-02T04:53:38.340Z,11.05
2023-05-02T04:55:41.075Z,9.75
2023-05-02T04:57:43.811Z,11.05
2023-05-02T04:59:46.479Z,11.13
2023-05-02T05:01:50.691Z,10.57
2023-05-02T05:03:53.582Z,10.38
2023-05-02T05:05:56.314Z,11.35
2023-05-02T05:07:59.036Z,13.10
2023-05-02T05:10:01.984Z,11.40
2023-05-02T05:12:05.501Z,12.15
2023-05-02T05:14:08.143Z,13.48
2023-05-02T05:16:10.953Z,11.75
2023-05-02T05:18:15.797Z,11.25
2023-05-02T05:20:18.575Z,11.13
2023-05-02T05:22:21.562Z,10.90
2023-05-02T05:24:24.306Z,10.43
2023-05-02T05:26:27.293Z,10.07
2023-05-02T05:28:29.968Z,10.77
2023-05-02T05:30:32.614Z,12.30
2023-05-02T05:32:35.729Z,10.95
2023-05-02T05:34:39.860Z,12.45
2023-05-02T05:36:43.118Z,13.18
2023-05-02T05:38:46.264Z,11.95
2023-05-02T05:40:50.822Z,9.82
2023-05-02T05:42:53.952Z,11.48
2023-05-02T05:44:56.653Z,10.77
2023-05-02T05:46:59.335Z,11.45
2023-05-02T05:49:02.027Z,11.70
2023-05-02T05:51:07.383Z,11.90
2023-05-02T05:53:10.140Z,13.32
2023-05-02T05:55:12.917Z,10.45
2023-05-02T05:57:15.668Z,11.82
2023-05-02T05:59:18.322Z,10.90
2023-05-02T06:01:20.991Z,12.00
2023-05-02T06:03:23.783Z,11.68
2023-05-02T06:05:26.612Z,13.18
2023-05-02T06:07:30.664Z,12.77
2023-05-02T06:09:33.484Z,11.57
2023-05-02T06:11:38.042Z,13.10
2023-05-02T06:13:40.746Z,13.18
2023-05-02T06:15:43.616Z,15.73
2023-05-02T06:17:47.011Z,14.18
2023-05-02T06:19:50.067Z,13.50
2023-05-02T06:21:52.820Z,13.15
2023-05-02T06:23:56.834Z,16.23
2023-05-02T06:26:00.719Z,14.10
2023-05-02T06:28:03.392Z,15.38
2023-05-02T06:30:07.633Z,15.32
2023-05-02T06:32:10.764Z,14.85
2023-05-02T06:34:13.387Z,15.57
2023-05-02T06:36:16.141Z,18.20
2023-05-02T06:38:19.212Z,15.90
2023-05-02T06:40:23.226Z,16.58
2023-05-02T06:42:25.971Z,17.25
2023-05-02T06:44:28.646Z,16.60
2023-05-02T06:46:32.173Z,17.92
2023-05-02T06:48:36.783Z,16.95
2023-05-02T06:50:39.584Z,18.55
2023-05-02T06:52:42.278Z,17.15
2023-05-02T06:54:45.006Z,16.55
2023-05-02T06:56:49.092Z,20.35
2023-05-02T06:58:51.834Z,18.05
2023-05-02T07:00:54.576Z,16.73
2023-05-02T07:02:57.291Z,16.88
2023-05-02T07:05:00.029Z,19.33
2023-05-02T07:07:03.898Z,17.40
2023-05-02T07:09:06.695Z,17.58
2023-05-02T07:11:09.504Z,18.30
2023-05-02T07:13:13.567Z,18.08
2023-05-02T07:15:16.588Z,19.23
2023-05-02T07:17:19.551Z,16.60
2023-05-02T07:19:22.286Z,19.40
2023-05-02T07:21:24.960Z,18.25
2023-05-02T07:23:27.771Z,16.25
2023-05-02T07:25:30.686Z,16.90
2023-05-02T07:27:33.436Z,16.92
2023-05-02T07:29:37.562Z,17.10
2023-05-02T07:31:40.355Z,20.00
2023-05-02T07:33:43.020Z,19.88
2023-05-02T07:35:45.841Z,17.85
2023-05-02T07:37:48.564Z,21.88
2023-05-02T07:39:51.386Z,19.63
2023-05-02T07:41:54.536Z,19.10
2023-05-02T07:43:57.605Z,21.33
2023-05-02T07:46:05.307Z,18.30
2023-05-02T07:48:08.108Z,19.70
2023-05-02T07:50:12.152Z,18.75
2023-05-02T07:52:14.980Z,20.80
2023-05-02T07:54:18.108Z,18.80
2023-05-02T07:56:21.221Z,21.20
2023-05-02T07:58:23.992Z,19.77
2023-05-02T08:00:26.845Z,22.27
2023-05-02T08:02:30.933Z,19.30
2023-05-02T08:04:33.835Z,19.10
2023-05-02T08:06:36.889Z,20.77
2023-05-02T08:08:39.700Z,19.73
2023-05-02T08:10:42.400Z,20.48
2023-05-02T08:12:45.128Z,22.50
2023-05-02T08:14:47.798Z,21.35
2023-05-02T08:16:50.578Z,20.25
2023-05-02T08:18:54.953Z,21.10
2023-05-02T08:20:58.527Z,25.92
2023-05-02T08:23:01.358Z,21.13
2023-05-02T08:25:04.225Z,24.00
2023-05-02T08:27:07.701Z,22.27
2023-05-02T08:29:11.788Z,22.20
2023-05-02T08:31:14.554Z,24.77
2023-05-02T08:33:17.468Z,26.92
2023-05-02T08:35:21.530Z,24.85
2023-05-02T08:37:24.367Z,27.77
2023-05-02T08:39:27.073Z,26.58
2023-05-02T08:41:31.167Z,27.40
2023-05-02T08:43:34.647Z,26.33
2023-05-02T08:45:42.024Z,24.48
2023-05-02T08:47:46.796Z,22.83
2023-05-02T08:49:51.094Z,26.67
2023-05-02T08:51:56.185Z,24.85
2023-05-02T08:53:59.949Z,27.35
2023-05-02T08:56:03.067Z,24.63
2023-05-02T08:58:06.579Z,25.70
2023-05-02T09:00:10.105Z,25.95
2023-05-02T09:02:18.950Z,21.15
2023-05-02T09:04:25.350Z,22.20
2023-05-02T09:06:29.216Z,22.60
2023-05-02T09:08:33.701Z,21.75
2023-05-02T09:10:37.523Z,22.77
2023-05-02T09:12:40.484Z,21.67
2023-05-02T09:14:44.854Z,26.42
2023-05-02T09:16:48.756Z,22.42
2023-05-02T09:18:52.696Z,21.83
2023-05-02T09:20:55.880Z,21.00
2023-05-02T09:22:58.974Z,21.25
2023-05-02T09:25:04.513Z,22.85
2023-05-02T09:27:07.354Z,23.20
2023-05-02T09:29:10.246Z,19.02
2023-05-02T09:31:18.734Z,20.05
2023-05-02T09:33:28.484Z,19.45
2023-05-02T09:35:31.284Z,20.90
2023-05-02T09:37:37.705Z,19.08
2023-05-02T09:41:45.525Z,19.55
2023-05-02T09:43:59.171Z,19.83
2023-05-02T09:46:03.738Z,18.45
2023-05-02T09:48:06.870Z,18.75
2023-05-02T09:50:10.401Z,18.60
2023-05-02T09:52:13.816Z,21.65
2023-05-02T09:54:35.908Z,18.02
2023-05-02T09:56:57.362Z,19.23
2023-05-02T09:59:14.670Z,19.17
2023-05-02T10:01:18.146Z,21.08
2023-05-02T10:03:21.165Z,18.25
2023-05-02T10:05:24.232Z,20.15
2023-05-02T10:07:27.367Z,16.52
2023-05-02T10:09:32.629Z,16.85
2023-05-02T10:11:35.936Z,17.98
2023-05-02T10:13:42.717Z,18.88
2023-05-02T10:15:46.557Z,17.23
2023-05-02T10:17:51.752Z,21.02
2023-05-02T10:19:58.839Z,16.60
2023-05-02T10:22:02.821Z,20.73
2023-05-02T10:24:06.915Z,18.67
2023-05-02T10:26:09.909Z,17.58
2023-05-02T10:28:12.982Z,19.45
2023-05-02T10:30:18.315Z,20.15
2023-05-02T10:32:23.633Z,20.40
2023-05-02T10:34:27.784Z,18.80
2023-05-02T10:36:33.614Z,18.13
2023-05-02T10:38:37.802Z,19.55
2023-05-02T10:40:42.496Z,18.02
2023-05-02T10:42:47.527Z,23.20
2023-05-02T10:44:51.697Z,22.25
2023-05-02T10:46:55.991Z,18.42
2023-05-02T10:49:01.947Z,17.13
2023-05-02T10:51:05.933Z,14.63
2023-05-02T10:53:27.634Z,16.52
2023-05-02T10:55:30.830Z,18.08
2023-05-02T10:57:33.888Z,15.57
2023-05-02T10:59:38.608Z,15.82
2023-05-02T11:01:42.846Z,15.57
2023-05-02T11:03:57.631Z,17.10
2023-05-02T11:06:07.067Z,18.60
2023-05-02T11:08:31.995Z,14.48
2023-05-02T11:10:34.794Z,16.70
2023-05-02T11:12:48.917Z,16.60
2023-05-02T11:14:51.860Z,17.38
2023-05-02T11:17:10.807Z,17.58
2023-05-02T11:19:15.050Z,20.70
2023-05-02T11:21:29.636Z,17.63
2023-05-02T11:23:32.528Z,18.00
2023-05-02T11:25:37.563Z,19.30
2023-05-02T11:27:41.324Z,18.02
2023-05-02T11:29:53.384Z,17.70
2023-05-02T11:31:56.195Z,17.60
2023-05-02T11:33:59.682Z,18.42
2023-05-02T11:36:04.083Z,16.33
2023-05-02T11:38:13.342Z,16.00
2023-05-02T11:40:17.004Z,17.02
2023-05-02T11:42:30.061Z,18.20
2023-05-02T11:44:32.869Z,18.80
2023-05-02T11:46:38.456Z,19.20
2023-05-02T11:48:42.830Z,15.10
2023-05-02T11:50:50.181Z,16.60
2023-05-02T11:52:55.034Z,17.95
2023-05-02T11:54:57.973Z,16.30
2023-05-02T11:57:02.588Z,14.90
2023-05-02T11:59:06.331Z,15.23
2023-05-02T12:01:14.306Z,16.88
2023-05-02T12:03:25.080Z,15.80
2023-05-02T12:05:31.516Z,15.65
2023-05-02T12:07:38.437Z,18.02
2023-05-02T12:09:53.409Z,17.58
2023-05-02T12:11:56.266Z,18.35
2023-05-02T12:13:59.025Z,16.20
2023-05-02T12:16:02.338Z,18.35
2023-05-02T12:18:05.663Z,16.75
2023-05-02T12:20:10.356Z,16.90
2023-05-02T12:22:14.489Z,17.73
2023-05-02T12:24:17.614Z,20.08
2023-05-02T12:26:25.245Z,15.25
2023-05-02T12:28:28.135Z,18.90
2023-05-02T12:30:33.157Z,15.68
2023-05-02T12:32:37.836Z,15.23
2023-05-02T12:34:41.265Z,18.48
2023-05-02T12:36:46.121Z,16.45
2023-05-02T12:38:53.539Z,18.13
2023-05-02T12:40:57.801Z,18.98
2023-05-02T12:43:04.356Z,18.73
2023-05-02T12:45:18.084Z,18.88
2023-05-02T12:47:22.598Z,21.83
2023-05-02T12:49:25.562Z,23.33
2023-05-02T12:51:28.754Z,22.73
2023-05-02T12:53:43.339Z,23.90
2023-05-02T12:55:46.922Z,27.20
2023-05-02T12:57:49.747Z,23.17
2023-05-02T12:59:55.203Z,22.50
2023-05-02T13:01:58.198Z,24.92
2023-05-02T13:04:01.037Z,22.60
2023-05-02T13:06:03.956Z,26.05
2023-05-02T13:08:07.161Z,25.83
2023-05-02T13:10:11.296Z,23.90
2023-05-02T13:12:14.045Z,23.88
2023-05-02T13:14:16.733Z,21.35
2023-05-02T13:16:21.428Z,22.05
2023-05-02T13:18:24.493Z,20.10
2023-05-02T13:20:27.257Z,24.05
2023-05-02T13:22:30.189Z,21.75
2023-05-02T13:24:32.887Z,20.10
2023-05-02T13:26:35.647Z,21.83
2023-05-02T13:28:38.338Z,18.73
2023-05-02T13:30:41.192Z,21.48
2023-05-02T13:32:45.347Z,19.33
2023-05-02T13:34:48.387Z,18.45
2023-05-02T13:36:51.038Z,18.48
2023-05-02T13:38:54.141Z,19.50
2023-05-02T13:40:56.898Z,24.10
2023-05-02T13:42:59.623Z,20.55
2023-05-02T13:45:05.045Z,18.67
2023-05-02T13:47:07.726Z,19.73
2023-05-02T13:49:11.762Z,17.58
2023-05-02T13:51:14.460Z,17.17
2023-05-02T13:53:17.403Z,18.08
2023-05-02T13:55:20.319Z,17.17
2023-05-02T13:57:23.030Z,20.48
2023-05-02T13:59:25.778Z,19.13
2023-05-02T14:01:28.740Z,17.63
2023-05-02T14:03:31.562Z,21.48
2023-05-02T14:05:36.550Z,14.98
2023-05-02T14:07:39.334Z,13.70
2023-05-02T14:09:42.061Z,14.77
2023-05-02T14:11:47.225Z,16.45
2023-05-02T14:13:49.927Z,15.85
2023-05-02T14:15:52.907Z,15.07
2023-05-02T14:17:55.664Z,16.25
2023-05-02T14:19:58.551Z,16.23
2023-05-02T14:22:02.628Z,19.50
2023-05-02T14:24:06.310Z,16.83
2023-05-02T14:26:09.215Z,18.55
2023-05-02T14:28:12.019Z,18.70
2023-05-02T14:30:14.868Z,20.50
2023-05-02T14:32:17.894Z,18.02
2023-05-02T14:34:21.966Z,18.17
2023-05-02T14:36:24.774Z,15.70
2023-05-02T14:38:28.874Z,16.75
2023-05-02T14:40:31.611Z,13.82
2023-05-02T14:42:34.325Z,12.73
2023-05-02T14:44:36.950Z,12.20
2023-05-02T14:46:39.785Z,13.25
2023-05-02T14:48:42.648Z,13.57
2023-05-02T14:50:45.547Z,11.00
2023-05-02T14:52:48.320Z,11.52
2023-05-02T14:54:52.795Z,14.50
2023-05-02T14:56:55.924Z,13.27
2023-05-02T14:58:58.798Z,12.95
2023-05-02T15:01:01.592Z,11.75
2023-05-02T15:03:07.368Z,12.60
2023-05-02T15:05:12.567Z,13.05
2023-05-02T15:07:16.253Z,11.50
2023-05-02T15:09:19.248Z,10.00
2023-05-02T15:11:24.344Z,10.55
2023-05-02T15:13:27.033Z,9.90
2023-05-02T15:15:29.863Z,10.25
2023-05-02T15:17:32.710Z,11.25
2023-05-02T15:19:35.434Z,10.52
2023-05-02T15:21:38.140Z,11.38
2023-05-02T15:23:40.838Z,13.73
2023-05-02T15:25:43.608Z,11.15
2023-05-02T15:27:47.727Z,13.15
2023-05-02T15:29:50.440Z,15.40
2023-05-02T15:31:54.584Z,13.80
2023-05-02T15:33:57.366Z,13.73
2023-05-02T15:36:00.679Z,12.93
2023-05-02T15:38:03.539Z,10.50
2023-05-02T15:40:07.585Z,11.18
2023-05-02T15:42:10.979Z,13.00
2023-05-02T15:44:15.079Z,12.93
2023-05-02T15:46:17.885Z,11.43
2023-05-02T15:48:20.826Z,12.30
2023-05-02T15:50:23.681Z,12.48
2023-05-02T15:52:26.345Z,13.77
2023-05-02T15:54:29.526Z,12.60
2023-05-02T15:56:32.400Z,10.30
2023-05-02T15:58:35.091Z,8.27
2023-05-02T16:00:39.304Z,9.60
2023-05-02T16:02:42.098Z,9.45
2023-05-02T16:04:44.844Z,7.93
2023-05-02T16:06:47.608Z,7.93
2023-05-02T16:08:50.368Z,9.00
2023-05-02T16:10:53.230Z,6.60
2023-05-02T16:12:55.883Z,7.65
2023-05-02T16:14:58.638Z,8.50
2023-05-02T16:17:02.818Z,7.68
2023-05-02T16:19:12.462Z,7.55
2023-05-02T16:21:15.208Z,7.93
2023-05-02T16:23:18.092Z,10.20
2023-05-02T16:25:21.166Z,7.60
2023-05-02T16:27:24.862Z,8.10
2023-05-02T16:29:27.595Z,8.38
2023-05-02T16:31:30.350Z,6.93
2023-05-02T16:33:34.537Z,6.50
2023-05-02T16:35:37.370Z,7.32
2023-05-02T16:37:40.987Z,7.63
2023-05-02T16:39:43.772Z,8.00
2023-05-02T16:41:49.251Z,7.97
2023-05-02T16:43:51.972Z,8.15
2023-05-02T16:46:02.427Z,6.68
2023-05-02T16:48:05.810Z,7.07
2023-05-02T16:50:10.727Z,5.20
2023-05-02T16:52:13.587Z,6.72
2023-05-02T16:54:16.305Z,5.80
2023-05-02T16:56:18.962Z,4.00
2023-05-02T16:58:21.761Z,5.55
2023-05-02T17:00:24.735Z,5.70
2023-05-02T17:02:27.414Z,4.45
2023-05-02T17:04:30.241Z,4.90
2023-05-02T17:06:34.626Z,5.13
2023-05-02T17:08:38.129Z,5.60
2023-05-02T17:10:40.819Z,4.35
2023-05-02T17:12:44.000Z,4.47
2023-05-02T17:14:46.811Z,4.15
2023-05-02T17:16:49.671Z,4.10
2023-05-02T17:18:53.592Z,4.97
2023-05-02T17:20:56.298Z,3.53
2023-05-02T17:23:00.807Z,4.20
2023-05-02T17:25:03.513Z,4.05
2023-05-02T17:27:06.544Z,3.70
2023-05-02T17:29:09.476Z,3.63
2023-05-02T17:31:13.078Z,4.70
2023-05-02T17:33:15.987Z,4.45
2023-05-02T17:35:18.905Z,4.53
2023-05-02T17:37:21.603Z,6.13
2023-05-02T17:39:25.684Z,5.05
2023-05-02T17:41:28.370Z,5.45
2023-05-02T17:43:31.117Z,6.68
2023-05-02T17:45:33.833Z,6.20
2023-05-02T17:47:36.657Z,6.05
2023-05-02T17:49:39.404Z,4.68
2023-05-02T17:51:42.133Z,4.70
2023-05-02T17:53:44.854Z,5.13
2023-05-02T17:55:48.944Z,4.60
2023-05-02T17:57:51.691Z,4.95
2023-05-02T17:59:58.411Z,5.65
2023-05-02T18:02:01.259Z,5.32
2023-05-02T18:04:04.690Z,5.30
2023-05-02T18:06:08.238Z,5.28
2023-05-02T18:08:11.036Z,5.03
2023-05-02T18:10:13.976Z,4.80
2023-05-02T18:12:18.039Z,5.63
2023-05-02T18:14:20.716Z,5.72
2023-05-02T18:16:23.445Z,6.22
2023-05-02T18:18:26.288Z,6.20
2023-05-02T18:20:29.038Z,6.18
2023-05-02T18:22:31.789Z,7.43
2023-05-02T18:24:34.567Z,6.60
2023-05-02T18:26:37.295Z,5.85
2023-05-02T18:28:43.492Z,6.10
2023-05-02T18:30:47.357Z,8.15
2023-05-02T18:32:50.100Z,6.65
2023-05-02T18:34:52.869Z,5.25
2023-05-02T18:36:56.226Z,5.88
2023-05-02T18:39:00.509Z,5.88
2023-05-02T18:41:04.072Z,6.10
2023-05-02T18:43:06.878Z,6.43
2023-05-02T18:45:11.209Z,6.95
2023-05-02T18:47:14.233Z,5.38
2023-05-02T18:49:17.033Z,6.18
2023-05-02T18:51:19.765Z,9.65
2023-05-02T18:53:24.623Z,5.88
2023-05-02T18:55:27.335Z,8.85
2023-05-02T18:57:30.184Z,5.93
2023-05-02T18:59:32.916Z,7.32
2023-05-02T19:01:37.062Z,6.72
2023-05-02T19:03:40.030Z,7.15
2023-05-02T19:05:44.169Z,7.68
2023-05-02T19:07:46.836Z,6.93
2023-05-02T19:09:49.646Z,6.90
2023-05-02T19:11:53.942Z,8.45
2023-05-02T19:13:59.825Z,7.72
2023-05-02T19:16:02.587Z,6.88
2023-05-02T19:18:07.124Z,8.88
2023-05-02T19:20:11.602Z,8.02
2023-05-02T19:22:14.888Z,7.22
2023-05-02T19:24:18.412Z,7.85
2023-05-02T19:26:21.206Z,9.23
2023-05-02T19:28:23.932Z,10.73
2023-05-02T19:30:26.718Z,8.52
2023-05-02T19:32:29.741Z,8.60
2023-05-02T19:34:34.096Z,9.38
2023-05-02T19:36:36.938Z,10.10
2023-05-02T19:38:41.535Z,8.10
2023-05-02T19:40:44.218Z,7.80
2023-05-02T19:42:46.958Z,11.00
2023-05-02T19:44:50.473Z,9.40
2023-05-02T19:46:53.169Z,8.18
2023-05-02T19:48:55.937Z,9.10
2023-05-02T19:51:02.482Z,7.18
2023-05-02T19:55:08.770Z,8.05
2023-05-02T19:57:11.494Z,9.70
2023-05-02T19:59:14.159Z,7.03
2023-05-02T20:01:16.904Z,8.45
2023-05-02T20:03:20.794Z,8.20
2023-05-02T20:05:23.788Z,7.35
2023-05-02T20:07:27.975Z,8.57
2023-05-02T20:09:30.703Z,7.75
2023-05-02T20:11:33.323Z,7.13
2023-05-02T20:13:36.139Z,8.85
2023-05-02T20:15:38.976Z,7.47
2023-05-02T20:17:41.701Z,7.65
2023-05-02T20:19:45.290Z,7.45
2023-05-02T20:21:47.999Z,8.95
2023-05-02T20:23:52.091Z,7.70
2023-05-02T20:25:54.775Z,9.35
2023-05-02T20:27:57.476Z,7.85
2023-05-02T20:30:00.487Z,8.38
2023-05-02T20:32:03.570Z,7.10
2023-05-02T20:34:06.427Z,7.63
2023-05-02T20:36:09.252Z,9.30
2023-05-02T20:38:12.381Z,10.25
2023-05-02T20:40:16.811Z,8.35
2023-05-02T20:42:23.370Z,7.85
2023-05-02T20:46:31.705Z,7.20
2023-05-02T20:48:34.373Z,8.75
2023-05-02T20:50:37.164Z,8.90
2023-05-02T20:52:40.020Z,6.13
2023-05-02T20:54:43.383Z,7.07
2023-05-02T20:56:47.460Z,7.10
2023-05-02T20:58:50.146Z,8.50
2023-05-02T21:00:52.980Z,7.85
2023-05-02T21:02:55.779Z,9.20
2023-05-02T21:04:59.220Z,7.32
2023-05-02T21:07:02.125Z,7.55
2023-05-02T21:09:04.952Z,6.05
2023-05-02T21:11:15.174Z,6.22
2023-05-02T21:13:19.288Z,6.47
2023-05-02T21:15:22.153Z,7.45
2023-05-02T21:17:26.253Z,8.43
2023-05-02T21:19:29.015Z,6.22
2023-05-02T21:21:32.318Z,6.72
2023-05-02T21:23:35.059Z,8.25
2023-05-02T21:25:38.219Z,6.93
2023-05-02T21:27:41.066Z,6.07
2023-05-02T21:29:45.244Z,8.07
2023-05-02T21:31:48.169Z,7.10
2023-05-02T21:33:51.273Z,6.18
2023-05-02T21:35:57.824Z,6.90
2023-05-02T21:38:00.862Z,8.38
2023-05-02T21:40:04.358Z,6.60
2023-05-02T21:42:07.305Z,7.82
2023-05-02T21:44:11.481Z,7.57
2023-05-02T21:46:15.706Z,8.40
2023-05-02T21:48:19.159Z,7.82
2023-05-02T21:50:22.588Z,8.98
2023-05-02T21:52:25.830Z,6.03
2023-05-02T21:54:28.759Z,6.90
2023-05-02T21:56:31.634Z,6.90
2023-05-02T21:58:34.329Z,7.60
2023-05-02T22:00:38.297Z,7.45
2023-05-02T22:02:42.733Z,7.85
2023-05-02T22:04:48.198Z,7.15
2023-05-02T22:06:53.826Z,7.60
2023-05-02T22:08:56.782Z,6.93
2023-05-02T22:10:59.668Z,7.00
2023-05-02T22:13:03.276Z,6.07
2023-05-02T22:15:08.219Z,7.63
2023-05-02T22:17:11.194Z,8.15
2023-05-02T22:19:15.614Z,9.77
2023-05-02T22:21:20.718Z,8.00
2023-05-02T22:23:23.850Z,9.30
2023-05-02T22:25:26.631Z,8.55
2023-05-02T22:27:29.499Z,7.38
2023-05-02T22:29:32.589Z,6.60
2023-05-02T22:31:36.217Z,7.78
2023-05-02T22:33:39.459Z,7.32
2023-05-02T22:35:43.616Z,7.25
2023-05-02T22:37:46.377Z,7.35
2023-05-02T22:39:49.011Z,6.55
2023-05-02T22:41:51.761Z,9.07
2023-05-02T22:43:54.581Z,6.13
2023-05-02T22:45:58.714Z,8.95
2023-05-02T22:48:01.492Z,7.72
2023-05-02T22:50:05.726Z,8.93
2023-05-02T22:52:09.877Z,8.23
2023-05-02T22:54:14.897Z,7.50
2023-05-02T22:56:17.688Z,12.20
2023-05-02T22:58:20.481Z,7.70
2023-05-02T23:00:23.605Z,7.40
2023-05-02T23:02:26.822Z,7.60
2023-05-02T23:04:32.576Z,9.38
2023-05-02T23:06:35.328Z,9.75
2023-05-02T23:08:39.423Z,7.15
2023-05-02T23:10:42.146Z,8.07
2023-05-02T23:12:44.838Z,9.48
2023-05-02T23:14:47.532Z,10.27
2023-05-02T23:16:53.648Z,8.73
2023-05-02T23:18:56.456Z,7.85
2023-05-02T23:20:59.253Z,8.48
2023-05-02T23:23:01.948Z,7.72
2023-05-02T23:25:08.637Z,8.10
2023-05-02T23:29:14.398Z,7.50
2023-05-02T23:31:17.279Z,7.90
2023-05-02T23:33:20.142Z,8.95
2023-05-02T23:35:22.836Z,8.77
2023-05-02T23:37:25.597Z,9.00
2023-05-02T23:39:28.344Z,8.93
2023-05-02T23:41:32.601Z,8.32
2023-05-02T23:43:35.571Z,9.40
2023-05-02T23:45:38.379Z,7.18
2023-05-02T23:47:41.364Z,7.90
2023-05-02T23:49:43.097Z,8.07
2023-05-02T23:51:46.082Z,10.05
2023-05-02T23:53:49.002Z,6.57
2023-05-02T23:55:52.070Z,7.95
2023-05-02T23:57:56.300Z,7.45
2023-05-02T23:59:59.026Z,7.28
